createdAt,value
2022-09-24T00:00:47.630Z,6.8
2022-09-24T00:03:04.043Z,6.9
2022-09-24T00:05:21.676Z,7.4
2022-09-24T00:07:37.267Z,7.6
2022-09-24T00:09:53.968Z,4.1
2022-09-24T00:12:10.270Z,7.4
2022-09-24T00:14:27.147Z,7.1
2022-09-24T00:16:44.233Z,6.9
2022-09-24T00:19:00.962Z,6.9
2022-09-24T00:21:16.934Z,6.8
2022-09-24T00:23:32.668Z,3.8
2022-09-24T00:25:48.717Z,3.1
2022-09-24T00:28:05.002Z,3.1
2022-09-24T00:30:21.832Z,7.3
2022-09-24T00:32:38.124Z,7
2022-09-24T00:34:55.476Z,6.8
2022-09-24T00:37:12.382Z,6.7
2022-09-24T00:39:29.216Z,6.6
2022-09-24T00:41:46.183Z,7.1
2022-09-24T00:44:03.042Z,6.9
2022-09-24T00:46:20.178Z,6.4
2022-09-24T00:48:36.772Z,6.4
2022-09-24T00:50:53.642Z,6.8
2022-09-24T00:53:10.644Z,6.5
2022-09-24T00:55:27.766Z,6.8
2022-09-24T00:57:44.283Z,6.9
2022-09-24T01:00:01.310Z,6.6
2022-09-24T01:02:17.237Z,6.8
2022-09-24T01:04:33.075Z,2.8
2022-09-24T01:06:49.359Z,2.7
2022-09-24T01:09:06.165Z,7.1
2022-09-24T01:11:22.867Z,5.6
2022-09-24T01:13:43.024Z,5.8
2022-09-24T01:15:56.686Z,6.3
2022-09-24T01:18:13.163Z,6.9
2022-09-24T01:20:30.148Z,6.8
2022-09-24T01:22:47.030Z,7.1
2022-09-24T01:25:04.327Z,6.9
2022-09-24T01:27:21.091Z,6.3
2022-09-24T01:29:37.965Z,7.1
2022-09-24T01:31:53.992Z,6.6
2022-09-24T01:34:09.943Z,3.1
2022-09-24T01:36:26.481Z,2.3
2022-09-24T01:38:43.161Z,6.1
2022-09-24T01:40:59.162Z,7.4
2022-09-24T01:43:15.469Z,1.7
2022-09-24T01:45:32.250Z,7
2022-09-24T01:47:48.848Z,5.4
2022-09-24T01:50:05.716Z,5.3
2022-09-24T01:52:21.598Z,5.4
2022-09-24T01:54:37.565Z,2.3
2022-09-24T01:56:54.093Z,1.9
2022-09-24T01:59:10.836Z,6.8
2022-09-24T02:01:26.822Z,6.1
2022-09-24T02:03:43.084Z,1.7
2022-09-24T02:05:59.486Z,7.3
2022-09-24T02:08:15.809Z,1.6
2022-09-24T02:10:32.197Z,6.6
2022-09-24T02:12:48.706Z,1.1
2022-09-24T02:15:05.443Z,6.5
2022-09-24T02:17:21.357Z,6.1
2022-09-24T02:19:37.943Z,0.9
2022-09-24T02:21:54.679Z,5.7
2022-09-24T02:24:11.220Z,4.8
2022-09-24T02:26:27.738Z,6.3
2022-09-24T02:28:43.684Z,5.3
2022-09-24T02:31:00.147Z,1.6
2022-09-24T02:33:16.654Z,5.9
2022-09-24T02:35:33.727Z,5.9
2022-09-24T02:37:50.059Z,6.7
2022-09-24T02:40:06.974Z,4.6
2022-09-24T02:42:23.378Z,5
2022-09-24T02:44:39.523Z,4.9
2022-09-24T02:46:55.990Z,1.9
2022-09-24T02:49:11.884Z,6.5
2022-09-24T02:51:28.614Z,1.2
2022-09-24T02:53:44.999Z,5.9
2022-09-24T02:56:01.774Z,5.6
2022-09-24T02:58:17.804Z,5.6
2022-09-24T03:01:55.731Z,2.4
2022-09-24T03:04:12.147Z,6.3
2022-09-24T03:06:28.246Z,5.6
2022-09-24T03:08:44.501Z,1.9
2022-09-24T03:11:01.043Z,6
2022-09-24T03:13:17.675Z,5.5
2022-09-24T03:15:34.172Z,4.4
2022-09-24T03:17:50.632Z,4.9
2022-09-24T03:20:06.617Z,5.4
2022-09-24T03:22:23.722Z,5.6
2022-09-24T03:24:39.633Z,5.1
2022-09-24T03:26:55.898Z,1.9
2022-09-24T03:29:11.941Z,5.9
2022-09-24T03:31:28.461Z,1.3
2022-09-24T03:33:44.926Z,6.1
2022-09-24T03:36:01.442Z,5.3
2022-09-24T03:38:17.818Z,4.8
2022-09-24T03:40:34.451Z,5.3
2022-09-24T03:42:51.119Z,5.1
2022-09-24T03:45:06.813Z,5.1
2022-09-24T03:47:22.701Z,2.3
2022-09-24T03:49:39.120Z,1.3
2022-09-24T03:51:55.769Z,4.7
2022-09-24T03:54:12.312Z,5.8
2022-09-24T03:56:28.782Z,4.6
2022-09-24T03:58:45.364Z,4.6
2022-09-24T04:01:01.879Z,5.1
2022-09-24T04:03:18.466Z,4.7
2022-09-24T04:05:33.811Z,4.6
2022-09-24T04:07:50.286Z,2.7
2022-09-24T04:10:06.747Z,1.3
2022-09-24T04:12:23.260Z,6.3
2022-09-24T04:14:39.720Z,4.4
2022-09-24T04:16:55.779Z,5.5
2022-09-24T04:19:12.118Z,0.9
2022-09-24T04:21:28.664Z,5.9
2022-09-24T04:23:44.725Z,5.1
2022-09-24T04:26:00.735Z,1.1
2022-09-24T04:28:17.509Z,1
2022-09-24T04:30:33.792Z,4.4
2022-09-24T04:32:50.381Z,5.3
2022-09-24T04:35:07.767Z,5.2
2022-09-24T04:37:23.626Z,4.8
2022-09-24T04:39:40.098Z,4.6
2022-09-24T04:41:56.687Z,5.6
2022-09-24T04:44:13.361Z,4.8
2022-09-24T04:46:29.900Z,4.7
2022-09-24T04:48:46.425Z,5.8
2022-09-24T04:51:02.913Z,5.1
2022-09-24T04:53:19.590Z,5
2022-09-24T04:55:35.999Z,5.4
2022-09-24T04:57:52.258Z,5.6
2022-09-24T05:00:08.497Z,2.4
2022-09-24T05:02:25.435Z,6.7
2022-09-24T05:04:41.883Z,6.6
2022-09-24T05:06:57.415Z,5.8
2022-09-24T05:09:14.586Z,4.3
2022-09-24T05:11:30.840Z,7.9
2022-09-24T05:13:48.072Z,7.6
2022-09-24T05:16:04.294Z,6.6
2022-09-24T05:18:20.418Z,7.5
2022-09-24T05:20:36.402Z,3.3
2022-09-24T05:22:53.375Z,3.8
2022-09-24T05:25:09.942Z,8.5
2022-09-24T05:27:26.753Z,9.3
2022-09-24T05:29:42.686Z,8.4
2022-09-24T05:31:58.869Z,4.8
2022-09-24T05:34:15.291Z,5.1
2022-09-24T05:36:31.897Z,8.7
2022-09-24T05:38:48.530Z,10.6
2022-09-24T05:41:05.343Z,9.9
2022-09-24T05:43:22.285Z,10.4
2022-09-24T05:45:39.114Z,9.5
2022-09-24T05:47:56.214Z,9.9
2022-09-24T05:50:13.223Z,9.3
2022-09-24T05:52:30.276Z,9.5
2022-09-24T05:54:47.216Z,9.8
2022-09-24T05:57:04.041Z,11.1
2022-09-24T05:59:21.466Z,11.1
2022-09-24T06:01:38.242Z,10.7
2022-09-24T06:03:54.385Z,10.9
2022-09-24T06:06:10.908Z,6.6
2022-09-24T06:08:27.077Z,11.9
2022-09-24T06:10:43.476Z,7.8
2022-09-24T06:13:00.718Z,11.6
2022-09-24T06:15:17.764Z,12.3
2022-09-24T06:17:34.884Z,12.9
2022-09-24T06:19:51.756Z,13.1
2022-09-24T06:22:08.570Z,12.5
2022-09-24T06:24:25.644Z,12.9
2022-09-24T06:26:42.549Z,12.6
2022-09-24T06:29:03.880Z,12.8
2022-09-24T06:31:16.528Z,12.6
2022-09-24T06:33:33.579Z,13.4
2022-09-24T06:35:50.410Z,14
2022-09-24T06:38:07.458Z,14.7
2022-09-24T06:40:24.255Z,14.1
2022-09-24T06:42:41.020Z,13.4
2022-09-24T06:44:58.176Z,13.8
2022-09-24T06:47:14.738Z,14.9
2022-09-24T06:49:33.998Z,15.7
2022-09-24T06:51:45.415Z,12.6
2022-09-24T06:54:02.044Z,11.9
2022-09-24T06:58:35.712Z,17.2
2022-09-24T07:00:51.299Z,16.8
2022-09-24T07:03:07.649Z,14
2022-09-24T07:05:24.268Z,18.4
2022-09-24T07:07:40.848Z,19.3
2022-09-24T07:09:57.576Z,19.7
2022-09-24T07:12:14.049Z,18.3
2022-09-24T07:14:30.859Z,18.6
2022-09-24T07:16:46.210Z,17.6
2022-09-24T07:19:02.485Z,17.3
2022-09-24T07:21:19.162Z,20
2022-09-24T07:25:52.151Z,18.5
2022-09-24T07:28:08.508Z,20.4
2022-09-24T07:30:25.266Z,20.7
2022-09-24T07:32:41.403Z,19.5
2022-09-24T07:34:56.844Z,21.1
2022-09-24T07:37:12.923Z,19.3
2022-09-24T07:39:29.439Z,22
2022-09-24T07:41:45.723Z,21.8
2022-09-24T07:44:01.900Z,23.9
2022-09-24T07:46:18.003Z,23.6
2022-09-24T07:48:34.160Z,24.9
2022-09-24T07:50:50.275Z,25
2022-09-24T07:53:06.031Z,24.6
2022-09-24T07:55:22.170Z,24.3
2022-09-24T07:57:38.036Z,24.9
2022-09-24T07:59:54.246Z,26.4
2022-09-24T08:02:10.137Z,26.9
2022-09-24T08:04:26.054Z,28.8
2022-09-24T08:06:46.689Z,26.9
2022-09-24T08:08:57.257Z,28.3
2022-09-24T08:11:12.126Z,24.3
2022-09-24T08:13:27.976Z,24.4
2022-09-24T08:15:42.217Z,25.6
2022-09-24T08:17:57.795Z,25.9
2022-09-24T08:20:13.426Z,31
2022-09-24T08:22:28.109Z,25.3
2022-09-24T08:24:43.369Z,27.2
2022-09-24T08:26:58.291Z,30.3
2022-09-24T08:29:13.620Z,32.3
2022-09-24T08:31:28.590Z,34.1
2022-09-24T08:33:44.000Z,32.3
2022-09-24T08:35:59.238Z,33.8
2022-09-24T08:38:13.586Z,34.4
2022-09-24T08:40:29.403Z,35.6
2022-09-24T08:42:44.472Z,35.4
2022-09-24T08:44:59.772Z,37.6
2022-09-24T08:47:14.939Z,36.9
2022-09-24T08:49:30.926Z,37.4
2022-09-24T08:51:46.169Z,43
2022-09-24T08:54:02.116Z,37
2022-09-24T08:56:17.336Z,44.9
2022-09-24T08:58:32.174Z,39.2
2022-09-24T09:01:54.956Z,38.9
2022-09-24T09:04:10.299Z,38.4
2022-09-24T09:06:25.501Z,37.6
2022-09-24T09:09:08.140Z,38.3
2022-09-24T09:11:23.214Z,43.2
2022-09-24T09:13:37.993Z,36.4
2022-09-24T09:15:53.203Z,38
2022-09-24T09:18:08.408Z,39.6
2022-09-24T09:20:23.739Z,39.4
2022-09-24T09:22:39.174Z,40.3
2022-09-24T09:24:55.442Z,40.4
2022-09-24T09:27:10.118Z,40.9
2022-09-24T09:29:25.735Z,40.4
2022-09-24T09:31:41.244Z,41.1
2022-09-24T09:33:56.829Z,40.3
2022-09-24T09:36:12.404Z,39.8
2022-09-24T09:38:28.113Z,38.8
2022-09-24T09:40:43.191Z,37.5
2022-09-24T09:42:59.267Z,37.4
2022-09-24T09:45:14.951Z,39.6
2022-09-24T09:47:30.578Z,39
2022-09-24T09:49:46.309Z,40.1
2022-09-24T09:52:01.899Z,40.9
2022-09-24T09:54:17.652Z,41.4
2022-09-24T09:56:33.659Z,38.9
2022-09-24T09:58:49.039Z,39.5
2022-09-24T10:01:04.805Z,40.1
2022-09-24T10:03:20.631Z,40.4
2022-09-24T10:05:36.234Z,41.4
2022-09-24T10:07:51.911Z,41.9
2022-09-24T10:10:07.695Z,42.8
2022-09-24T10:12:23.674Z,42.6
2022-09-24T10:14:39.301Z,38.8
2022-09-24T10:16:55.151Z,34.9
2022-09-24T10:19:10.955Z,31.6
2022-09-24T10:21:28.347Z,29.3
2022-09-24T10:23:42.791Z,28.6
2022-09-24T10:25:58.787Z,27.9
2022-09-24T10:28:14.921Z,27.3
2022-09-24T10:30:30.490Z,26.9
2022-09-24T10:32:46.433Z,25.8
2022-09-24T10:35:02.371Z,26.1
2022-09-24T10:37:18.318Z,25.1
2022-09-24T10:39:34.110Z,24.6
2022-09-24T10:41:50.406Z,24.2
2022-09-24T10:44:06.109Z,24
2022-09-24T10:46:22.062Z,23.9
2022-09-24T10:48:37.863Z,22.6
2022-09-24T10:50:53.881Z,22.6
2022-09-24T10:53:09.698Z,22.6
2022-09-24T10:55:25.539Z,21.6
2022-09-24T10:57:41.637Z,21.7
2022-09-24T10:59:57.439Z,20.9
2022-09-24T11:02:13.634Z,20.9
2022-09-24T11:04:29.268Z,20.9
2022-09-24T11:06:45.371Z,20.6
2022-09-24T11:09:01.189Z,20.2
2022-09-24T11:11:17.261Z,20.1
2022-09-24T11:13:33.021Z,19.9
2022-09-24T11:15:48.766Z,19.8
2022-09-24T11:18:04.827Z,19.2
2022-09-24T11:20:20.739Z,19.3
2022-09-24T11:22:36.727Z,19.3
2022-09-24T11:24:52.488Z,18.5
2022-09-24T11:27:08.766Z,18.4
2022-09-24T11:29:24.450Z,18.9
2022-09-24T11:33:56.293Z,18.6
2022-09-24T11:36:12.403Z,18.8
2022-09-24T11:38:28.112Z,18.8
2022-09-24T11:40:44.289Z,18.4
2022-09-24T11:42:59.943Z,17.9
2022-09-24T11:45:15.750Z,18.2
2022-09-24T11:47:31.758Z,18.1
2022-09-24T11:49:47.008Z,18.6
2022-09-24T11:52:03.508Z,18.3
2022-09-24T11:54:19.233Z,17.9
2022-09-24T11:56:35.351Z,17.9
2022-09-24T11:58:51.150Z,17.8
2022-09-24T12:01:07.090Z,17.8
2022-09-24T12:03:26.073Z,17.6
2022-09-24T12:05:38.801Z,17.8
2022-09-24T12:07:54.778Z,17.9
2022-09-24T12:10:10.637Z,18.1
2022-09-24T15:01:55.974Z,15
2022-09-24T15:04:11.920Z,14.9
2022-09-24T15:06:27.907Z,14.8
2022-09-24T15:08:43.835Z,14.7
2022-09-24T15:10:59.702Z,14.7
2022-09-24T15:13:15.583Z,14.6
2022-09-24T15:15:31.552Z,14.6
2022-09-24T15:17:47.808Z,14.6
2022-09-24T15:20:03.817Z,14.6
2022-09-24T15:22:20.137Z,19.1
2022-09-24T15:24:35.634Z,19.9
2022-09-24T15:26:51.691Z,13.8
2022-09-24T15:29:07.786Z,19.3
2022-09-24T15:31:24.675Z,19.1
2022-09-24T15:33:41.035Z,19.1
2022-09-24T15:38:13.669Z,19.1
2022-09-24T15:40:30.203Z,18.1
2022-09-24T15:42:46.571Z,18.5
2022-09-24T15:45:02.812Z,18.4
2022-09-24T15:47:18.086Z,18.8
2022-09-24T15:49:33.183Z,14.9
2022-09-24T15:51:49.262Z,13.1
2022-09-24T15:54:05.814Z,18.1
2022-09-24T15:56:22.147Z,17.9
2022-09-24T15:58:38.729Z,17.6
2022-09-24T16:00:54.947Z,18.4
2022-09-24T16:03:11.430Z,18
2022-09-24T16:05:27.909Z,16.5
2022-09-24T16:07:44.038Z,17.3
2022-09-24T16:10:00.494Z,16.9
2022-09-24T16:12:15.824Z,15.8
2022-09-24T16:14:31.693Z,13.4
2022-09-24T16:16:48.704Z,14.8
2022-09-24T16:19:05.636Z,15.3
2022-09-24T16:21:22.134Z,15.1
2022-09-24T16:23:37.535Z,15.1
2022-09-24T16:25:52.889Z,11.4
2022-09-24T16:28:09.215Z,11.6
2022-09-24T16:30:26.101Z,15.5
2022-09-24T16:32:42.658Z,14.5
2022-09-24T16:34:59.706Z,14.7
2022-09-24T16:37:16.272Z,15.1
2022-09-24T16:39:32.920Z,14.1
2022-09-24T16:41:49.641Z,14.1
2022-09-24T16:44:06.503Z,14.6
2022-09-24T16:46:23.118Z,14.3
2022-09-24T16:48:39.758Z,13.9
2022-09-24T16:50:56.423Z,14.4
2022-09-24T16:53:13.195Z,14.1
2022-09-24T16:55:28.544Z,13.8
2022-09-24T16:57:44.806Z,11.1
2022-09-24T17:00:01.872Z,14.8
2022-09-24T17:02:18.525Z,13.4
2022-09-24T17:04:34.341Z,13.7
2022-09-24T17:06:50.290Z,10.4
2022-09-24T17:09:07.216Z,14.6
2022-09-24T17:11:23.888Z,13.8
2022-09-24T17:13:40.601Z,12.8
2022-09-24T17:15:57.425Z,13.1
2022-09-24T17:18:14.051Z,13.3
2022-09-24T17:20:30.754Z,13.9
2022-09-24T17:22:47.742Z,13.2
2022-09-24T17:25:03.328Z,13.1
2022-09-24T17:27:18.667Z,10.6
2022-09-24T17:29:35.269Z,9.4
2022-09-24T17:31:52.192Z,14.7
2022-09-24T17:34:26.316Z,13.4
2022-09-24T17:36:42.681Z,9.4
2022-09-24T17:38:59.665Z,14.1
2022-09-24T17:41:16.425Z,13.5
2022-09-24T17:43:33.141Z,12.8
2022-09-24T17:45:49.959Z,12.9
2022-09-24T17:48:05.371Z,13
2022-09-24T17:50:21.730Z,9.9
2022-09-24T17:52:38.577Z,12.8
2022-09-24T17:54:55.323Z,13
2022-09-24T17:57:12.053Z,12.6
2022-09-24T17:59:28.793Z,12.4
2022-09-24T18:01:45.677Z,12.8
2022-09-24T18:04:02.323Z,12.9
2022-09-24T18:06:19.078Z,11.9
2022-09-24T18:08:35.895Z,12.6
2022-09-24T18:10:52.867Z,12.7
2022-09-24T18:13:09.357Z,12.6
2022-09-24T18:15:26.083Z,12.5
2022-09-24T18:17:42.779Z,12.6
2022-09-24T18:19:59.545Z,12.6
2022-09-24T18:22:16.265Z,12.6
2022-09-24T18:24:33.059Z,12.6
2022-09-24T18:26:51.755Z,12.9
2022-09-24T18:29:06.798Z,12.4
2022-09-24T18:31:23.687Z,12.3
2022-09-24T18:33:40.538Z,11.9
2022-09-24T18:35:57.239Z,12.3
2022-09-24T18:38:14.300Z,12.5
2022-09-24T18:40:31.028Z,11.8
2022-09-24T18:42:47.978Z,11.8
2022-09-24T18:45:04.743Z,12.6
2022-09-24T18:47:21.480Z,12
2022-09-24T18:49:38.600Z,12.6
2022-09-24T18:51:55.328Z,12
2022-09-24T18:54:12.389Z,12.4
2022-09-24T18:56:29.338Z,12.6
2022-09-24T18:58:46.039Z,12
2022-09-24T19:01:02.921Z,11.9
2022-09-24T19:03:19.836Z,12
2022-09-24T19:05:36.660Z,11.8
2022-09-24T19:07:53.384Z,11.9
2022-09-24T19:10:10.469Z,11.9
2022-09-24T19:12:27.260Z,11.9
2022-09-24T19:14:44.391Z,11.6
2022-09-24T19:17:01.278Z,11.5
2022-09-24T19:19:18.013Z,11.2
2022-09-24T19:21:34.885Z,11.3
2022-09-24T19:23:51.863Z,11.7
2022-09-24T19:26:08.659Z,11.6
2022-09-24T19:28:24.477Z,11.4
2022-09-24T19:30:40.822Z,8.3
2022-09-24T19:32:57.643Z,11.7
2022-09-24T19:35:14.718Z,11.2
2022-09-24T19:37:31.399Z,11.6
2022-09-24T19:39:48.402Z,11.8
2022-09-24T19:42:05.497Z,11.7
2022-09-24T19:44:22.214Z,11.3
2022-09-24T19:46:39.100Z,11.9
2022-09-24T19:48:56.144Z,11.1
2022-09-24T19:51:12.942Z,11.3
2022-09-24T19:53:29.726Z,11.2
2022-09-24T19:55:46.737Z,11.3
2022-09-24T19:58:03.453Z,11.5
2022-09-24T20:00:20.519Z,11.1
2022-09-24T20:02:37.500Z,11.7
2022-09-24T20:04:54.473Z,11.3
2022-09-24T20:07:11.020Z,10.9
2022-09-24T20:09:28.119Z,11.4
2022-09-24T20:11:44.876Z,11
2022-09-24T20:14:02.018Z,10.9
2022-09-24T20:16:18.769Z,11.1
2022-09-24T20:18:35.379Z,11.1
2022-09-24T20:20:52.505Z,10.8
2022-09-24T20:23:09.284Z,10.5
2022-09-24T20:25:26.264Z,11.1
2022-09-24T20:27:43.270Z,10.6
2022-09-24T20:30:00.191Z,11
2022-09-24T20:32:16.876Z,10.8
2022-09-24T20:34:34.230Z,10.9
2022-09-24T20:36:50.882Z,10.6
2022-09-24T20:39:07.488Z,11
2022-09-24T20:41:24.498Z,10.7
2022-09-24T20:43:41.284Z,11.1
2022-09-24T20:45:58.518Z,10.9
2022-09-24T20:48:15.129Z,10.6
2022-09-24T20:50:30.972Z,10.8
2022-09-24T20:52:48.019Z,8.1
2022-09-24T20:55:04.517Z,10.5
2022-09-24T20:57:21.460Z,10.1
2022-09-24T20:59:38.396Z,10
2022-09-24T21:01:56.205Z,10.7
2022-09-24T21:04:30.339Z,10.2
2022-09-24T21:06:47.149Z,10.3
2022-09-24T21:09:04.083Z,10.6
2022-09-24T21:11:20.766Z,10
2022-09-24T21:13:36.460Z,10.3
2022-09-24T21:15:52.938Z,8.1
2022-09-24T21:18:24.197Z,10.4
2022-09-24T21:20:39.845Z,10.6
2022-09-24T21:22:56.764Z,10.4
2022-09-24T21:25:21.979Z,10.2
2022-09-24T21:27:43.243Z,10.1
2022-09-24T21:29:59.941Z,10.4
2022-09-24T21:32:15.856Z,10.1
2022-09-24T21:34:32.181Z,7.4
2022-09-24T21:36:49.283Z,10
2022-09-24T21:39:06.220Z,9.8
2022-09-24T21:41:23.438Z,10.3
2022-09-24T21:43:39.101Z,9.5
2022-09-24T21:45:55.426Z,5.9
2022-09-24T21:48:12.418Z,10.3
2022-09-24T21:50:29.316Z,9.8
2022-09-24T21:52:46.362Z,9.8
2022-09-24T21:55:03.220Z,9.8
2022-09-24T21:57:20.276Z,10.1
2022-09-24T21:59:35.996Z,9.8
2022-09-24T22:01:51.647Z,6.9
2022-09-24T22:04:07.412Z,5.8
2022-09-24T22:06:25.231Z,9.7
2022-09-24T22:08:41.010Z,10.3
2022-09-24T22:10:57.372Z,6.4
2022-09-24T22:13:14.668Z,9.9
2022-09-24T22:15:30.312Z,9.1
2022-09-24T22:17:47.083Z,6.6
2022-09-24T22:20:04.044Z,10.3
2022-09-24T22:22:21.071Z,9.5
2022-09-24T22:24:36.771Z,9.6
2022-09-24T22:26:53.379Z,6.6
2022-09-24T22:29:10.734Z,9.9
2022-09-24T22:31:27.387Z,9.8
2022-09-24T22:33:44.410Z,9.8
2022-09-24T22:36:01.155Z,10
2022-09-24T22:38:17.095Z,9.8
2022-09-24T22:40:33.564Z,7.1
2022-09-24T22:42:50.639Z,9.6
2022-09-24T22:45:07.403Z,9.4
2022-09-24T22:47:24.502Z,9.8
2022-09-24T22:49:40.821Z,9.7
2022-09-24T22:51:57.305Z,9.1
2022-09-24T22:54:13.807Z,4.6
2022-09-24T22:56:30.602Z,10.1
2022-09-24T22:58:47.732Z,9.3
2022-09-24T23:01:03.494Z,8.9
2022-09-24T23:03:19.947Z,5.3
2022-09-24T23:05:36.035Z,9.8
2022-09-24T23:07:51.736Z,5.1
2022-09-24T23:10:07.634Z,5.3
2022-09-24T23:12:24.319Z,5.4
2022-09-24T23:14:41.467Z,9.6
2022-09-24T23:16:58.263Z,9.4
2022-09-24T23:19:15.316Z,9.1
2022-09-24T23:21:32.059Z,8.8
2022-09-24T23:23:49.200Z,9.3
2022-09-24T23:26:05.928Z,9.1
2022-09-24T23:28:21.916Z,9.1
2022-09-24T23:30:37.526Z,5.9
2022-09-24T23:32:54.199Z,5
2022-09-24T23:35:10.422Z,9.4
2022-09-24T23:37:28.345Z,8.7
2022-09-24T23:39:43.988Z,9.1
2022-09-24T23:42:00.340Z,5.6
2022-09-24T23:44:17.415Z,9.2
2022-09-24T23:46:33.284Z,9.1
2022-09-24T23:48:49.267Z,5
2022-09-24T23:51:05.445Z,4.9
2022-09-24T23:53:22.811Z,10
2022-09-24T23:55:39.629Z,8.3
2022-09-24T23:57:56.817Z,8.8
